APG427 RPVP-RPLL
Flight info
| Callsign | APG427 |
|---|---|
| Flight time | 0h 55m |
| Altitude | 35000 |
| Route | DABOY1E DABOY W281 LEGED N884 LUBAN LUBAN7R |
| Aircraft | A320/M-SDE3FGHIRWY/LB1 |
Departure
| Time | 2026-04-24 04:24 |
|---|---|
| Airport | Puerto Princesa International Airport / PAF Antonio Bautista Air Base (RPVP) |
Arrival
| Time | 2026-04-24 05:19 |
|---|---|
| Airport | Ninoy Aquino International Airport (RPLL) |
| Time | Latitude | Longitude | Altitude | Speed | Heading |
|---|---|---|---|---|---|
| 2026-04-24 03:46 | 9.74509 | 118.75065 | 77 ft | 0 kts | 3° |
| 2026-04-24 04:14 | 9.74494 | 118.75064 | 69 ft | 4 kts | 2° |
| 2026-04-24 04:14 | 9.74467 | 118.75063 | 68 ft | 4 kts | 1° |
| 2026-04-24 04:14 | 9.74442 | 118.75063 | 73 ft | 3 kts | 352° |
| 2026-04-24 04:15 | 9.74427 | 118.75066 | 69 ft | 2 kts | 325° |
| 2026-04-24 04:15 | 9.74419 | 118.75074 | 71 ft | 2 kts | 288° |
| 2026-04-24 04:15 | 9.74416 | 118.75085 | 67 ft | 2 kts | 275° |
| 2026-04-24 04:15 | 9.74415 | 118.75096 | 69 ft | 2 kts | 271° |
| 2026-04-24 04:16 | 9.74415 | 118.75103 | 74 ft | 0 kts | 271° |
| 2026-04-24 04:20 | 9.74415 | 118.75102 | 74 ft | 1 kts | 271° |
| 2026-04-24 04:21 | 9.74414 | 118.75062 | 70 ft | 8 kts | 271° |
| 2026-04-24 04:21 | 9.74417 | 118.75000 | 77 ft | 10 kts | 274° |
| 2026-04-24 04:21 | 9.74422 | 118.74933 | 77 ft | 9 kts | 274° |
| 2026-04-24 04:21 | 9.74425 | 118.74869 | 76 ft | 12 kts | 272° |
| 2026-04-24 04:22 | 9.74426 | 118.74751 | 75 ft | 17 kts | 266° |
| 2026-04-24 04:22 | 9.74362 | 118.74705 | 70 ft | 7 kts | 181° |
| 2026-04-24 04:22 | 9.74319 | 118.74705 | 70 ft | 5 kts | 180° |
| 2026-04-24 04:22 | 9.74287 | 118.74705 | 64 ft | 4 kts | 180° |
| 2026-04-24 04:23 | 9.74264 | 118.74721 | 70 ft | 7 kts | 107° |
| 2026-04-24 04:23 | 9.74258 | 118.74817 | 77 ft | 34 kts | 92° |
| 2026-04-24 04:23 | 9.74239 | 118.75307 | 74 ft | 102 kts | 92° |
| 2026-04-24 04:23 | 9.74200 | 118.76217 | 89 ft | 151 kts | 91° |
| 2026-04-24 04:24 | 9.74154 | 118.77276 | 821 ft | 150 kts | 93° |
| 2026-04-24 04:24 | 9.74208 | 118.78332 | 1472 ft | 157 kts | 71° |
| 2026-04-24 04:24 | 9.74902 | 118.79269 | 1813 ft | 182 kts | 36° |
| 2026-04-24 04:24 | 9.76169 | 118.79750 | 2078 ft | 208 kts | 18° |
| 2026-04-24 04:25 | 9.77653 | 118.80148 | 2377 ft | 233 kts | 17° |
| 2026-04-24 04:25 | 9.79263 | 118.80576 | 3032 ft | 243 kts | 17° |
| 2026-04-24 04:25 | 9.80915 | 118.81015 | 3808 ft | 248 kts | 17° |
| 2026-04-24 04:25 | 9.82581 | 118.81459 | 4675 ft | 250 kts | 17° |
| 2026-04-24 04:26 | 9.84274 | 118.81914 | 5443 ft | 254 kts | 17° |
| 2026-04-24 04:26 | 9.85992 | 118.82380 | 6228 ft | 257 kts | 17° |
| 2026-04-24 04:26 | 9.87731 | 118.82855 | 6982 ft | 261 kts | 17° |
| 2026-04-24 04:26 | 9.89519 | 118.83238 | 7729 ft | 267 kts | 7° |
| 2026-04-24 04:27 | 9.91459 | 118.83244 | 8148 ft | 287 kts | 359° |
| 2026-04-24 04:27 | 9.93490 | 118.83178 | 8820 ft | 295 kts | 359° |
| 2026-04-24 04:27 | 9.95556 | 118.83107 | 9580 ft | 300 kts | 359° |
| 2026-04-24 04:27 | 9.97667 | 118.83035 | 10184 ft | 312 kts | 359° |
| 2026-04-24 04:28 | 9.99888 | 118.82963 | 10419 ft | 335 kts | 359° |
| 2026-04-24 04:28 | 10.02291 | 118.82889 | 10611 ft | 356 kts | 359° |
| 2026-04-24 04:28 | 10.04803 | 118.82814 | 11104 ft | 365 kts | 359° |
| 2026-04-24 04:28 | 10.07355 | 118.82739 | 11729 ft | 369 kts | 359° |
| 2026-04-24 04:29 | 10.09935 | 118.82663 | 12374 ft | 372 kts | 359° |
| 2026-04-24 04:29 | 10.12533 | 118.82586 | 13030 ft | 376 kts | 358° |
| 2026-04-24 04:29 | 10.15159 | 118.82508 | 13676 ft | 379 kts | 358° |
| 2026-04-24 04:29 | 10.17809 | 118.82428 | 14248 ft | 382 kts | 358° |
| 2026-04-24 04:30 | 10.20474 | 118.82348 | 14819 ft | 385 kts | 358° |
| 2026-04-24 04:30 | 10.23164 | 118.82265 | 15388 ft | 387 kts | 358° |
| 2026-04-24 04:30 | 10.25862 | 118.82183 | 15934 ft | 389 kts | 358° |
| 2026-04-24 04:30 | 10.28579 | 118.82101 | 16477 ft | 392 kts | 358° |
| 2026-04-24 04:31 | 10.31309 | 118.82018 | 17017 ft | 394 kts | 359° |
| 2026-04-24 04:31 | 10.34019 | 118.81938 | 17527 ft | 397 kts | 359° |
| 2026-04-24 04:31 | 10.36790 | 118.81856 | 18033 ft | 399 kts | 359° |
| 2026-04-24 04:31 | 10.39573 | 118.81773 | 18480 ft | 401 kts | 359° |
| 2026-04-24 04:32 | 10.42376 | 118.81827 | 18892 ft | 404 kts | 4° |
| 2026-04-24 04:32 | 10.45183 | 118.82026 | 19297 ft | 406 kts | 4° |
| 2026-04-24 04:32 | 10.48008 | 118.82227 | 19711 ft | 409 kts | 4° |
| 2026-04-24 04:32 | 10.50857 | 118.82432 | 20118 ft | 411 kts | 4° |
| 2026-04-24 04:33 | 10.53721 | 118.82635 | 20516 ft | 414 kts | 4° |
| 2026-04-24 04:33 | 10.56611 | 118.82836 | 20912 ft | 417 kts | 4° |
| 2026-04-24 04:33 | 10.59513 | 118.83037 | 21302 ft | 420 kts | 4° |
| 2026-04-24 04:33 | 10.62438 | 118.83240 | 21693 ft | 423 kts | 4° |
| 2026-04-24 04:34 | 10.65378 | 118.83446 | 22079 ft | 425 kts | 4° |
| 2026-04-24 04:34 | 10.68340 | 118.83656 | 22460 ft | 428 kts | 4° |
| 2026-04-24 04:34 | 10.71321 | 118.83870 | 22838 ft | 431 kts | 4° |
| 2026-04-24 04:34 | 10.74324 | 118.84084 | 23207 ft | 434 kts | 4° |
| 2026-04-24 04:35 | 10.77300 | 118.84293 | 23561 ft | 436 kts | 4° |
| 2026-04-24 04:35 | 10.80340 | 118.84501 | 23867 ft | 439 kts | 4° |
| 2026-04-24 04:35 | 10.83391 | 118.84711 | 24178 ft | 441 kts | 4° |
| 2026-04-24 04:35 | 10.86460 | 118.84925 | 24474 ft | 443 kts | 4° |
| 2026-04-24 04:36 | 10.89549 | 118.85143 | 24776 ft | 445 kts | 4° |
| 2026-04-24 04:36 | 10.92646 | 118.85362 | 25071 ft | 448 kts | 4° |
| 2026-04-24 04:36 | 10.95766 | 118.85580 | 25363 ft | 450 kts | 4° |
| 2026-04-24 04:36 | 10.98892 | 118.85799 | 25635 ft | 452 kts | 4° |
| 2026-04-24 04:37 | 11.02041 | 118.86023 | 25912 ft | 455 kts | 4° |
| 2026-04-24 04:37 | 11.05206 | 118.86246 | 26203 ft | 457 kts | 3° |
| 2026-04-24 04:37 | 11.08381 | 118.86471 | 26501 ft | 459 kts | 3° |
| 2026-04-24 04:37 | 11.11584 | 118.86699 | 26791 ft | 461 kts | 3° |
| 2026-04-24 04:38 | 11.14787 | 118.86928 | 27072 ft | 463 kts | 3° |
| 2026-04-24 04:38 | 11.18005 | 118.87153 | 27346 ft | 465 kts | 3° |
| 2026-04-24 04:38 | 11.21242 | 118.87379 | 27623 ft | 467 kts | 3° |
| 2026-04-24 04:38 | 11.24456 | 118.87604 | 27873 ft | 469 kts | 3° |
| 2026-04-24 04:39 | 11.27713 | 118.87831 | 28131 ft | 471 kts | 3° |
| 2026-04-24 04:39 | 11.30994 | 118.88063 | 28386 ft | 473 kts | 3° |
| 2026-04-24 04:39 | 11.34283 | 118.88295 | 28624 ft | 475 kts | 3° |
| 2026-04-24 04:39 | 11.37596 | 118.88528 | 28857 ft | 477 kts | 3° |
| 2026-04-24 04:40 | 11.40914 | 118.88762 | 29100 ft | 479 kts | 3° |
| 2026-04-24 04:40 | 11.44251 | 118.88995 | 29339 ft | 481 kts | 3° |
| 2026-04-24 04:40 | 11.46468 | 118.89150 | 29498 ft | 482 kts | 3° |
| 2026-04-24 04:40 | 11.49814 | 118.89388 | 29775 ft | 483 kts | 3° |
| 2026-04-24 04:41 | 11.54296 | 118.89709 | 30219 ft | 482 kts | 2° |
| 2026-04-24 04:41 | 11.57638 | 118.89945 | 30528 ft | 481 kts | 2° |
| 2026-04-24 04:41 | 11.59850 | 118.90100 | 30721 ft | 480 kts | 2° |
| 2026-04-24 04:41 | 11.63187 | 118.90334 | 31023 ft | 480 kts | 2° |
| 2026-04-24 04:42 | 11.66511 | 118.90565 | 31332 ft | 479 kts | 2° |
| 2026-04-24 04:42 | 11.69839 | 118.90798 | 31651 ft | 478 kts | 2° |
| 2026-04-24 04:42 | 11.73124 | 118.91032 | 31970 ft | 477 kts | 2° |
| 2026-04-24 04:42 | 11.76435 | 118.91272 | 32298 ft | 476 kts | 2° |
| 2026-04-24 04:43 | 11.79738 | 118.91510 | 32626 ft | 475 kts | 2° |
| 2026-04-24 04:43 | 11.84118 | 118.91820 | 33084 ft | 473 kts | 1° |
| 2026-04-24 04:43 | 11.86305 | 118.91974 | 33312 ft | 472 kts | 1° |
| 2026-04-24 04:43 | 11.89591 | 118.92205 | 33658 ft | 471 kts | 1° |
| 2026-04-24 04:44 | 11.92876 | 118.92435 | 33992 ft | 470 kts | 1° |
| 2026-04-24 04:44 | 11.96107 | 118.92661 | 34290 ft | 469 kts | 1° |
| 2026-04-24 04:44 | 11.99362 | 118.92892 | 34590 ft | 468 kts | 1° |
| 2026-04-24 04:44 | 12.02611 | 118.93124 | 34850 ft | 468 kts | 1° |
| 2026-04-24 04:45 | 12.09092 | 118.93584 | 34936 ft | 467 kts | 1° |
| 2026-04-24 04:45 | 12.15582 | 118.94037 | 34935 ft | 467 kts | 1° |
| 2026-04-24 04:46 | 12.22063 | 118.94496 | 34931 ft | 467 kts | 2° |
| 2026-04-24 04:46 | 12.28540 | 118.94961 | 34935 ft | 466 kts | 2° |
| 2026-04-24 04:47 | 12.35012 | 118.95425 | 34930 ft | 466 kts | 2° |
| 2026-04-24 04:47 | 12.41441 | 118.95882 | 34932 ft | 466 kts | 2° |
| 2026-04-24 04:48 | 12.47902 | 118.96344 | 34929 ft | 466 kts | 2° |
| 2026-04-24 04:48 | 12.54370 | 118.96799 | 34936 ft | 466 kts | 2° |
| 2026-04-24 04:49 | 12.60841 | 118.97252 | 34936 ft | 466 kts | 2° |
| 2026-04-24 04:49 | 12.67300 | 118.97713 | 34937 ft | 465 kts | 2° |
| 2026-04-24 04:50 | 12.73738 | 118.98172 | 34936 ft | 465 kts | 2° |
| 2026-04-24 04:50 | 12.80206 | 118.98630 | 34941 ft | 466 kts | 2° |
| 2026-04-24 04:51 | 12.86658 | 118.99095 | 34945 ft | 466 kts | 2° |
| 2026-04-24 04:51 | 12.93108 | 118.99560 | 34950 ft | 466 kts | 2° |
| 2026-04-24 04:52 | 12.99479 | 119.00880 | 34948 ft | 469 kts | 21° |
| 2026-04-24 04:52 | 13.02384 | 119.02401 | 34945 ft | 470 kts | 32° |
| 2026-04-24 04:52 | 13.04965 | 119.04449 | 34941 ft | 471 kts | 43° |
| 2026-04-24 04:53 | 13.09149 | 119.09586 | 34934 ft | 472 kts | 51° |
| 2026-04-24 04:53 | 13.13187 | 119.14906 | 34959 ft | 472 kts | 51° |
| 2026-04-24 04:54 | 13.17214 | 119.20210 | 34963 ft | 471 kts | 52° |
| 2026-04-24 04:54 | 13.21224 | 119.25513 | 34958 ft | 469 kts | 52° |
| 2026-04-24 04:55 | 13.25228 | 119.30799 | 34942 ft | 469 kts | 52° |
| 2026-04-24 04:55 | 13.27229 | 119.33442 | 34723 ft | 468 kts | 52° |
| 2026-04-24 04:55 | 13.29203 | 119.36051 | 34496 ft | 468 kts | 52° |
| 2026-04-24 04:56 | 13.31200 | 119.38689 | 34061 ft | 469 kts | 52° |
| 2026-04-24 04:56 | 13.33219 | 119.41357 | 32908 ft | 478 kts | 52° |
| 2026-04-24 04:56 | 13.35264 | 119.44065 | 31873 ft | 483 kts | 52° |
| 2026-04-24 04:56 | 13.37338 | 119.46811 | 30834 ft | 489 kts | 52° |
| 2026-04-24 04:57 | 13.39437 | 119.49592 | 29621 ft | 496 kts | 52° |
| 2026-04-24 04:57 | 13.41573 | 119.52420 | 28561 ft | 497 kts | 52° |
| 2026-04-24 04:57 | 13.43672 | 119.55203 | 27740 ft | 494 kts | 52° |
| 2026-04-24 04:57 | 13.45764 | 119.57980 | 26991 ft | 489 kts | 52° |
| 2026-04-24 04:58 | 13.47837 | 119.60730 | 26240 ft | 485 kts | 52° |
| 2026-04-24 04:58 | 13.49894 | 119.63451 | 25504 ft | 480 kts | 52° |
| 2026-04-24 04:58 | 13.51930 | 119.66148 | 24783 ft | 475 kts | 52° |
| 2026-04-24 04:58 | 13.53945 | 119.68819 | 24064 ft | 472 kts | 52° |
| 2026-04-24 04:59 | 13.55949 | 119.71476 | 23328 ft | 469 kts | 52° |
| 2026-04-24 04:59 | 13.57936 | 119.74116 | 22669 ft | 463 kts | 52° |
| 2026-04-24 04:59 | 13.59898 | 119.76724 | 21946 ft | 459 kts | 52° |
| 2026-04-24 04:59 | 13.61836 | 119.79301 | 21337 ft | 453 kts | 52° |
| 2026-04-24 05:00 | 13.63750 | 119.81848 | 20744 ft | 448 kts | 52° |
| 2026-04-24 05:00 | 13.65647 | 119.84374 | 20186 ft | 443 kts | 52° |
| 2026-04-24 05:00 | 13.67509 | 119.86858 | 19627 ft | 437 kts | 52° |
| 2026-04-24 05:00 | 13.69360 | 119.89326 | 19096 ft | 432 kts | 52° |
| 2026-04-24 05:01 | 13.71166 | 119.91726 | 18565 ft | 428 kts | 51° |
| 2026-04-24 05:01 | 13.72981 | 119.94138 | 17994 ft | 424 kts | 52° |
| 2026-04-24 05:01 | 13.74773 | 119.96526 | 17435 ft | 419 kts | 52° |
| 2026-04-24 05:01 | 13.76541 | 119.98884 | 16897 ft | 414 kts | 52° |
| 2026-04-24 05:02 | 13.78286 | 120.01206 | 16589 ft | 404 kts | 52° |
| 2026-04-24 05:02 | 13.79974 | 120.03454 | 16461 ft | 389 kts | 52° |
| 2026-04-24 05:02 | 13.81597 | 120.05617 | 16342 ft | 376 kts | 52° |
| 2026-04-24 05:02 | 13.83170 | 120.07717 | 16221 ft | 364 kts | 52° |
| 2026-04-24 05:03 | 13.84764 | 120.09685 | 16100 ft | 352 kts | 44° |
| 2026-04-24 05:03 | 13.86568 | 120.11424 | 16025 ft | 362 kts | 45° |
| 2026-04-24 05:03 | 13.88274 | 120.13357 | 15941 ft | 367 kts | 50° |
| 2026-04-24 05:03 | 13.89877 | 120.15402 | 15866 ft | 367 kts | 52° |
| 2026-04-24 05:04 | 13.91435 | 120.17483 | 15786 ft | 367 kts | 52° |
| 2026-04-24 05:04 | 13.92993 | 120.19566 | 15605 ft | 367 kts | 52° |
| 2026-04-24 05:04 | 13.94551 | 120.21605 | 15132 ft | 366 kts | 51° |
| 2026-04-24 05:04 | 13.96148 | 120.23645 | 14617 ft | 366 kts | 51° |
| 2026-04-24 05:05 | 13.97765 | 120.25675 | 14096 ft | 367 kts | 51° |
| 2026-04-24 05:05 | 13.99396 | 120.27699 | 13544 ft | 367 kts | 51° |
| 2026-04-24 05:05 | 14.01028 | 120.29722 | 12970 ft | 367 kts | 51° |
| 2026-04-24 05:05 | 14.02656 | 120.31739 | 12434 ft | 365 kts | 51° |
| 2026-04-24 05:06 | 14.04271 | 120.33744 | 11882 ft | 363 kts | 51° |
| 2026-04-24 05:06 | 14.05877 | 120.35739 | 11338 ft | 361 kts | 51° |
| 2026-04-24 05:06 | 14.07477 | 120.37730 | 10797 ft | 359 kts | 51° |
| 2026-04-24 05:06 | 14.09043 | 120.39683 | 10594 ft | 347 kts | 51° |
| 2026-04-24 05:07 | 14.10549 | 120.41561 | 10486 ft | 333 kts | 51° |
| 2026-04-24 05:07 | 14.11996 | 120.43367 | 10363 ft | 321 kts | 51° |
| 2026-04-24 05:07 | 14.13389 | 120.45105 | 10245 ft | 309 kts | 51° |
| 2026-04-24 05:07 | 14.14734 | 120.46788 | 10093 ft | 300 kts | 52° |
| 2026-04-24 05:08 | 14.16048 | 120.48436 | 9916 ft | 294 kts | 52° |
| 2026-04-24 05:08 | 14.17336 | 120.50052 | 9566 ft | 299 kts | 52° |
| 2026-04-24 05:08 | 14.18667 | 120.51717 | 9247 ft | 295 kts | 52° |
| 2026-04-24 05:08 | 14.19952 | 120.53321 | 8868 ft | 293 kts | 52° |
| 2026-04-24 05:09 | 14.21242 | 120.54932 | 8247 ft | 291 kts | 52° |
| 2026-04-24 05:09 | 14.22532 | 120.56545 | 7547 ft | 291 kts | 52° |
| 2026-04-24 05:09 | 14.23812 | 120.58144 | 7009 ft | 284 kts | 52° |
| 2026-04-24 05:09 | 14.25040 | 120.59678 | 6521 ft | 276 kts | 52° |
| 2026-04-24 05:10 | 14.26248 | 120.61188 | 6034 ft | 269 kts | 52° |
| 2026-04-24 05:10 | 14.27418 | 120.62654 | 5562 ft | 261 kts | 52° |
| 2026-04-24 05:10 | 14.28546 | 120.64066 | 5344 ft | 245 kts | 53° |
| 2026-04-24 05:10 | 14.29593 | 120.65374 | 5255 ft | 233 kts | 53° |
| 2026-04-24 05:11 | 14.30618 | 120.66661 | 5174 ft | 231 kts | 53° |
| 2026-04-24 05:11 | 14.31636 | 120.67937 | 5080 ft | 231 kts | 53° |
| 2026-04-24 05:11 | 14.32646 | 120.69222 | 4978 ft | 226 kts | 57° |
| 2026-04-24 05:11 | 14.32922 | 120.69661 | 4921 ft | 223 kts | 62° |
| 2026-04-24 05:12 | 14.33379 | 120.70545 | 4791 ft | 220 kts | 66° |
| 2026-04-24 05:12 | 14.34092 | 120.71933 | 4554 ft | 218 kts | 63° |
| 2026-04-24 05:12 | 14.34842 | 120.73276 | 4342 ft | 215 kts | 62° |
| 2026-04-24 05:12 | 14.35588 | 120.74587 | 4134 ft | 213 kts | 62° |
| 2026-04-24 05:13 | 14.37069 | 120.77202 | 3717 ft | 210 kts | 62° |
| 2026-04-24 05:13 | 14.37800 | 120.78500 | 3508 ft | 208 kts | 62° |
| 2026-04-24 05:13 | 14.38523 | 120.79789 | 3312 ft | 207 kts | 62° |
| 2026-04-24 05:14 | 14.39240 | 120.81070 | 3108 ft | 205 kts | 62° |
| 2026-04-24 05:14 | 14.39948 | 120.82335 | 2894 ft | 203 kts | 63° |
| 2026-04-24 05:14 | 14.40645 | 120.83582 | 2708 ft | 199 kts | 62° |
| 2026-04-24 05:14 | 14.41331 | 120.84814 | 2526 ft | 198 kts | 63° |
| 2026-04-24 05:15 | 14.42015 | 120.86048 | 2344 ft | 196 kts | 61° |
| 2026-04-24 05:15 | 14.42682 | 120.87246 | 2136 ft | 189 kts | 62° |
| 2026-04-24 05:15 | 14.43326 | 120.88406 | 1951 ft | 184 kts | 62° |
| 2026-04-24 05:15 | 14.43948 | 120.89527 | 1857 ft | 175 kts | 62° |
| 2026-04-24 05:16 | 14.44520 | 120.90556 | 1775 ft | 160 kts | 63° |
| 2026-04-24 05:16 | 14.45068 | 120.91542 | 1713 ft | 154 kts | 62° |
| 2026-04-24 05:16 | 14.45594 | 120.92487 | 1666 ft | 154 kts | 63° |
| 2026-04-24 05:16 | 14.46129 | 120.93450 | 1470 ft | 154 kts | 64° |
| 2026-04-24 05:17 | 14.46648 | 120.94384 | 1280 ft | 147 kts | 62° |
| 2026-04-24 05:17 | 14.47154 | 120.95295 | 1060 ft | 145 kts | 62° |
| 2026-04-24 05:17 | 14.47653 | 120.96193 | 846 ft | 143 kts | 62° |
| 2026-04-24 05:17 | 14.48152 | 120.97087 | 664 ft | 143 kts | 63° |
| 2026-04-24 05:18 | 14.48650 | 120.97980 | 488 ft | 142 kts | 64° |
| 2026-04-24 05:18 | 14.49134 | 120.98857 | 292 ft | 141 kts | 62° |
| 2026-04-24 05:18 | 14.49632 | 120.99729 | 162 ft | 141 kts | 63° |
| 2026-04-24 05:18 | 14.50108 | 121.00595 | 70 ft | 131 kts | 64° |
| 2026-04-24 05:19 | 14.50496 | 121.01301 | 66 ft | 89 kts | 61° |
| 2026-04-24 05:19 | 14.50707 | 121.01661 | 64 ft | 30 kts | 45° |
| 2026-04-24 05:19 | 14.50849 | 121.01801 | 63 ft | 28 kts | 45° |
| 2026-04-24 05:19 | 14.50905 | 121.01826 | 64 ft | 4 kts | 301° |
| 2026-04-24 05:20 | 14.50910 | 121.01753 | 65 ft | 11 kts | 247° |
| 2026-04-24 05:20 | 14.50888 | 121.01687 | 66 ft | 9 kts | 276° |
| 2026-04-24 05:20 | 14.50915 | 121.01636 | 64 ft | 7 kts | 288° |
| 2026-04-24 05:20 | 14.50902 | 121.01593 | 62 ft | 6 kts | 242° |
| 2026-04-24 05:21 | 14.50884 | 121.01560 | 63 ft | 5 kts | 242° |
| 2026-04-24 05:21 | 14.50863 | 121.01518 | 64 ft | 13 kts | 242° |
| 2026-04-24 05:21 | 14.50834 | 121.01463 | 66 ft | 6 kts | 243° |
| 2026-04-24 05:21 | 14.50851 | 121.01446 | 60 ft | 3 kts | 332° |
| 2026-04-24 05:22 | 14.50866 | 121.01437 | 63 ft | 2 kts | 330° |
| 2026-04-24 05:22 | 14.50894 | 121.01421 | 63 ft | 6 kts | 331° |
| 2026-04-24 05:22 | 14.50911 | 121.01411 | 67 ft | 0 kts | 330° |